WetterOnline ( http://www.wetteronline.de )

Wetter aktuell Magdeburg

Aktuelles Wetter: Magdeburg (85m)

6-stündlich | Neueste Meldungen
Ortszeit Temperatur Wetter
Mi, 20.06. 14:00 24.5° C bedeckt
Mi, 20.06. 8:00 19.7° C bedeckt
Mi, 20.06. 2:00 17.0° C bewölkt
Di, 19.06. 20:00 22.5° C bewölkt
Di, 19.06. 14:00 22.9° C bedeckt
Di, 19.06. 8:00 19.2° C wolkenlos
Di, 19.06. 2:00 18.5° C bedeckt
Mo, 18.06. 20:00 22.3° C leicht bewölkt
Ortszeit Temperatur Wetter
Mi, 20.06. 15:30 26.6° C wolkig
Mi, 20.06. 15:20 26.6° C wolkig
Mi, 20.06. 15:10 26.6° C bewölkt
Mi, 20.06. 15:00 24.9° C bedeckt
Mi, 20.06. 14:50 24.9° C bedeckt
Mi, 20.06. 14:40 25.2° C bedeckt
Mi, 20.06. 14:30 24.9° C bedeckt
Mi, 20.06. 14:00 24.5° C bedeckt
Mi, 20.06. 13:30 24.2° C bedeckt
Mi, 20.06. 13:00 23.9° C bedeckt
Mi, 20.06. 12:30 23.9° C bedeckt
Ortszeit Relative Feuchte Sichtweite
Mi, 20.06. 14:00 56% 35 km
Mi, 20.06. 8:00 79% 8 km
Mi, 20.06. 2:00 89% 13 km
Di, 19.06. 20:00 63% 40 km
Di, 19.06. 14:00 62% 40 km
Di, 19.06. 8:00 70% 8 km
Di, 19.06. 2:00 77% 50 km
Mo, 18.06. 20:00 56% 70 km
Ortszeit Relative Feuchte Sichtweite
Mi, 20.06. 15:30 48% 21 km
Mi, 20.06. 15:20 48% -
Mi, 20.06. 15:10 52% -
Mi, 20.06. 15:00 54% 30 km
Mi, 20.06. 14:50 54% -
Mi, 20.06. 14:40 54% -
Mi, 20.06. 14:30 56% 40 km
Mi, 20.06. 14:00 56% 35 km
Mi, 20.06. 13:30 58% 30 km
Mi, 20.06. 13:00 59% 35 km
Mi, 20.06. 12:30 61% 30 km
Ortszeit Niederschlagsmenge Niederschlagsart
Mi, 20.06. 14:00 0.0 l/m2 in 6 Std. -
Mi, 20.06. 8:00 0.0 l/m2 in 12 Std. -
Mi, 20.06. 2:00 0.0 l/m2 in 6 Std. -
Di, 19.06. 20:00 0.0 l/m2 in 12 Std. -
Di, 19.06. 14:00 0.0 l/m2 in 6 Std. -
Di, 19.06. 8:00 0.1 l/m2 in 12 Std. Regen
Di, 19.06. 2:00 0.0 l/m2 in 6 Std. -
Mo, 18.06. 20:00 0.0 l/m2 in 12 Std. -
Ortszeit Niederschlagsmenge Niederschlagsart
Mi, 20.06. 15:30 0.0 l/m2 in 1 Std. -
Mi, 20.06. 15:20 keine Meldung -
Mi, 20.06. 15:10 keine Meldung -
Mi, 20.06. 15:00 0.0 l/m2 in 1 Std. -
Mi, 20.06. 14:50 keine Meldung -
Mi, 20.06. 14:40 keine Meldung -
Mi, 20.06. 14:30 0.0 l/m2 in 1 Std. -
Mi, 20.06. 14:00 0.0 l/m2 in 1 Std. -
Mi, 20.06. 13:30 0.0 l/m2 in 1 Std. -
Mi, 20.06. 13:00 0.0 l/m2 in 1 Std. -
Mi, 20.06. 12:30 0.0 l/m2 in 1 Std. -
Ortszeit Stärke Spitze Richtung
km/h Bft. km/h Grad Sektor
Mi, 20.06. 14:00 9 2 24 220° SW
Mi, 20.06. 8:00 7 2 11 210° SW
Mi, 20.06. 2:00 0 0 18 - -
Di, 19.06. 20:00 7 2 32 300° NW
Di, 19.06. 14:00 13 3 31 260° W
Di, 19.06. 8:00 11 2 25 270° W
Di, 19.06. 2:00 6 1 17 210° SW
Mo, 18.06. 20:00 7 2 32 260° W
Ortszeit Stärke Spitze Richtung
km/h Bft. km/h Grad Sektor
Mi, 20.06. 15:30 7 2 18 270° W
Mi, 20.06. 15:20 7 2 - 270° W
Mi, 20.06. 15:10 7 2 - 220° SW
Mi, 20.06. 15:00 9 2 20 230° SW
Mi, 20.06. 14:50 9 2 - 230° SW
Mi, 20.06. 14:40 9 2 - 230° SW
Mi, 20.06. 14:30 11 2 22 240° SW
Mi, 20.06. 14:00 9 2 22 220° SW
Mi, 20.06. 13:30 11 2 22 230° SW
Mi, 20.06. 13:00 9 2 19 230° SW
Mi, 20.06. 12:30 11 2 18 230° SW
Ortszeit Untergrenze Bedeckung Gattung
total tief tief mittel hoch
Mi, 20.06. 14:00 1290 m 8/8 8/8 - - -
Mi, 20.06. 8:00 - 8/8 - - - -
Mi, 20.06. 2:00 1200 m 8/8 7/8 - - -
Di, 19.06. 20:00 1800 m 7/8 7/8 - - -
Di, 19.06. 14:00 960 m 8/8 8/8 - - -
Di, 19.06. 8:00 - 0/8 0/8 - - -
Di, 19.06. 2:00 2100 m 8/8 8/8 - - -
Mo, 18.06. 20:00 1440 m 2/8 4/8 - - -
Ortszeit Bedeckungsgrad in Achtel und Wolkenuntergrenze
Mi, 20.06. 15:30 1(1350m) 6(1500m)
Mi, 20.06. 15:20 1(1350m) 6(1500m)
Mi, 20.06. 15:10 3(1380m) 7(1500m)
Mi, 20.06. 15:00 8(1500m)
Mi, 20.06. 14:50 8(1500m)
Mi, 20.06. 14:40 8(1500m)
Mi, 20.06. 14:30 8(1500m)
Mi, 20.06. 14:00 1(1290m) 8(1500m)
Mi, 20.06. 13:30 3(1230m) 8(1500m)
Mi, 20.06. 13:00 4(1230m) 8(1500m)
Mi, 20.06. 12:30 3(1350m) 8(1500m)
Ortszeit Luftdruck NN (hPa) Tendenz (hPa in 3 Std.)
Mi, 20.06. 14:00 1020 - 1,6
Mi, 20.06. 8:00 1023 - 0,3
Mi, 20.06. 2:00 1024 + 0,3
Di, 19.06. 20:00 1022 + 0,1
Di, 19.06. 14:00 1022 + 0,7
Di, 19.06. 8:00 1021 + 0,9
Di, 19.06. 2:00 1020 - 0,1
Mo, 18.06. 20:00 1019 - 0,7
Ortszeit Luftdruck NN (hPa) Tendenz (hPa in 3 Std.)
Mi, 20.06. 15:30 1019 - 2,2
Mi, 20.06. 15:20 1019 keine Meldung
Mi, 20.06. 15:10 1019 keine Meldung
Mi, 20.06. 15:00 1020 - 2,0
Mi, 20.06. 14:50 1020 keine Meldung
Mi, 20.06. 14:40 1020 keine Meldung
Mi, 20.06. 14:30 1020 - 1,8
Mi, 20.06. 14:00 1020 - 1,6
Mi, 20.06. 13:30 1021 - 1,5
Mi, 20.06. 13:00 1021 - 1,3
Mi, 20.06. 12:30 1022 - 1,0
Ortszeit Schneehöhe (cm)
Mi, 20.06. 14:00 -
Mi, 20.06. 8:00 -
Mi, 20.06. 2:00 -
Di, 19.06. 20:00 -
Di, 19.06. 14:00 -
Di, 19.06. 8:00 -
Di, 19.06. 2:00 -
Mo, 18.06. 20:00 -
Ortszeit Schneehöhe (cm)
Mi, 20.06. 15:30 -
Mi, 20.06. 15:20 -
Mi, 20.06. 15:10 -
Mi, 20.06. 15:00 -
Mi, 20.06. 14:50 -
Mi, 20.06. 14:40 -
Mi, 20.06. 14:30 -
Mi, 20.06. 14:00 -
Mi, 20.06. 13:30 -
Mi, 20.06. 13:00 -
Mi, 20.06. 12:30 -
Link zu dieser Seite / Seite empfehlen

Das Wetter in ...